Time;durP1;ratioP1;P1;durP2;ratioP2;P2;SDS_P1;SDS_P2;PMS_P1;PMS_P2;Temp;Humidity;BMP_temperature;BMP_pressure;BME280_temperature;BME280_humidity;BME280_pressure;Samples;Min_cycle;Max_cycle;Signal;HPM_P1;HPM_P2
2024/04/08 00:01:44;;;;;;;2.40;1.40;;;15.90;99.90;;;;;;5072398;28;20184;-72
2024/04/08 00:04:10;;;;;;;2.87;1.77;;;15.90;99.90;;;;;;5054688;28;20162;-72
2024/04/08 00:06:35;;;;;;;4.63;1.80;;;15.90;99.90;;;;;;5072459;28;20458;-72
2024/04/08 00:09:01;;;;;;;3.07;1.80;;;15.90;99.90;;;;;;5072123;28;20529;-71
2024/04/08 00:11:26;;;;;;;2.23;2.00;;;15.90;99.90;;;;;;5072206;28;20684;-71
2024/04/08 00:13:52;;;;;;;2.50;2.00;;;15.80;99.90;;;;;;5072502;28;20161;-72
2024/04/08 00:16:18;;;;;;;2.60;1.60;;;15.70;99.90;;;;;;5072454;28;20166;-72
2024/04/08 00:18:43;;;;;;;2.70;2.30;;;15.70;99.90;;;;;;5054165;28;20256;-71
2024/04/08 00:21:09;;;;;;;1.50;1.40;;;15.60;99.90;;;;;;5072072;28;20315;-72
2024/04/08 00:23:34;;;;;;;2.80;2.00;;;15.60;99.90;;;;;;5054443;28;20174;-72
2024/04/08 00:26:04;;;;;;;2.53;1.97;;;15.50;99.90;;;;;;5072295;28;20170;-71
2024/04/08 00:28:30;;;;;;;3.33;1.90;;;15.40;99.90;;;;;;5048786;28;20210;-72
2024/04/08 00:31:05;;;;;;;6.67;1.90;;;15.40;99.90;;;;;;5071946;28;20557;-71
2024/04/08 00:33:32;;;;;;;3.43;1.80;;;15.30;99.90;;;;;;5072117;28;20408;-71
2024/04/08 00:35:58;;;;;;;4.90;1.83;;;15.30;99.90;;;;;;5072035;28;20501;-72
2024/04/08 00:38:24;;;;;;;3.10;1.77;;;15.30;99.90;;;;;;5071854;28;20791;-71
2024/04/08 00:40:50;;;;;;;3.10;2.17;;;15.30;99.90;;;;;;5072016;28;20649;-71
2024/04/08 00:43:15;;;;;;;2.70;1.80;;;15.20;99.90;;;;;;5071765;28;20265;-72
2024/04/08 00:45:42;;;;;;;2.60;1.50;;;15.20;99.90;;;;;;5072169;28;20246;-72
2024/04/08 00:48:10;;;;;;;2.10;1.40;;;15.20;99.90;;;;;;5071655;28;20197;-71
2024/04/08 00:50:37;;;;;;;3.17;2.20;;;15.20;99.90;;;;;;5071824;28;20468;-72
2024/04/08 00:53:03;;;;;;;4.30;2.17;;;15.20;99.90;;;;;;5071694;28;20513;-72
2024/04/08 00:55:31;;;;;;;4.37;2.40;;;15.20;99.90;;;;;;5053659;28;20410;-72
2024/04/08 00:57:56;;;;;;;3.47;2.40;;;15.20;99.90;;;;;;5071823;28;20412;-72
2024/04/08 01:00:22;;;;;;;2.97;1.70;;;15.20;99.90;;;;;;5071316;28;20440;-71
2024/04/08 01:02:48;;;;;;;2.10;1.67;;;15.20;99.90;;;;;;5071178;28;20231;-72
2024/04/08 01:05:14;;;;;;;2.40;1.80;;;15.10;99.90;;;;;;5071820;28;20258;-72
2024/04/08 01:07:45;;;;;;;3.57;1.67;;;15.10;99.90;;;;;;5071611;28;20170;-72
2024/04/08 01:10:11;;;;;;;2.37;1.50;;;15.10;99.90;;;;;;5071138;28;20598;-71
2024/04/08 01:12:40;;;;;;;3.03;1.87;;;15.10;99.90;;;;;;5071676;28;20889;-71
2024/04/08 01:15:06;;;;;;;3.40;1.93;;;15.10;99.90;;;;;;5071854;28;20413;-72
2024/04/08 01:17:31;;;;;;;1.80;1.50;;;15.10;99.90;;;;;;5071664;28;20419;-72
2024/04/08 01:19:57;;;;;;;2.00;1.73;;;15.20;99.90;;;;;;5071570;28;20416;-71
2024/04/08 01:22:22;;;;;;;3.30;2.07;;;15.20;99.90;;;;;;5071615;28;20253;-71
2024/04/08 01:24:48;;;;;;;2.47;1.93;;;15.20;99.90;;;;;;5071526;28;20700;-71
2024/04/08 01:27:13;;;;;;;2.00;1.43;;;15.10;99.90;;;;;;5066210;28;20541;-72
2024/04/08 01:29:39;;;;;;;4.50;2.20;;;15.00;99.90;;;;;;5052874;28;20193;-71
2024/04/08 01:32:04;;;;;;;3.27;1.50;;;15.00;99.90;;;;;;5071206;28;20235;-72
2024/04/08 01:34:30;;;;;;;2.03;1.70;;;14.80;99.90;;;;;;5071445;28;20170;-72
2024/04/08 01:36:55;;;;;;;2.10;1.37;;;14.80;99.90;;;;;;5071596;28;20532;-72
2024/04/08 01:39:21;;;;;;;5.83;2.40;;;14.60;99.90;;;;;;5071304;28;20186;-71
2024/04/08 01:41:47;;;;;;;3.83;2.07;;;14.60;99.90;;;;;;5071399;28;20172;-72
2024/04/08 01:44:12;;;;;;;3.40;1.80;;;14.50;99.90;;;;;;5071285;28;20166;-71
2024/04/08 01:46:38;;;;;;;3.57;1.73;;;14.40;99.90;;;;;;5070883;28;20175;-72
2024/04/08 01:49:04;;;;;;;2.67;2.27;;;14.20;99.90;;;;;;5071190;28;20541;-71
2024/04/08 01:51:30;;;;;;;4.27;1.87;;;14.20;99.90;;;;;;5071191;28;20618;-71
2024/04/08 01:53:55;;;;;;;2.20;1.90;;;14.10;99.90;;;;;;5071138;28;20484;-71
2024/04/08 01:56:21;;;;;;;2.27;1.87;;;14.00;99.90;;;;;;5071117;28;20533;-71
2024/04/08 01:58:47;;;;;;;2.07;1.57;;;13.90;99.90;;;;;;5070891;28;20171;-72
2024/04/08 02:01:12;;;;;;;2.90;1.97;;;13.90;99.90;;;;;;5071120;28;20202;-71
2024/04/08 02:03:38;;;;;;;2.30;1.70;;;13.90;99.90;;;;;;5071218;28;20510;-72
2024/04/08 02:06:04;;;;;;;2.97;1.40;;;13.80;99.90;;;;;;5072200;28;20636;-71
2024/04/08 02:08:30;;;;;;;5.70;2.63;;;13.70;99.90;;;;;;5074567;28;20162;-72
2024/04/08 02:10:55;;;;;;;2.33;1.83;;;13.70;99.90;;;;;;5074614;28;20525;-72
2024/04/08 02:13:21;;;;;;;2.77;2.20;;;13.60;99.90;;;;;;5056688;28;20192;-72
2024/04/08 02:15:46;;;;;;;3.37;1.70;;;13.60;99.90;;;;;;5074757;28;20216;-71
2024/04/08 02:18:12;;;;;;;2.00;1.60;;;13.50;99.90;;;;;;5074482;28;20265;-72
2024/04/08 02:20:38;;;;;;;4.60;2.77;;;13.50;99.90;;;;;;5074532;28;20248;-71
2024/04/08 02:23:04;;;;;;;3.60;2.00;;;13.50;99.90;;;;;;5074334;28;20581;-71
2024/04/08 02:25:29;;;;;;;4.33;2.40;;;13.30;99.90;;;;;;5074399;28;20405;-72
2024/04/08 02:27:55;;;;;;;2.70;2.47;;;13.30;99.90;;;;;;5069175;28;20178;-72
2024/04/08 02:30:20;;;;;;;3.73;2.40;;;13.20;99.90;;;;;;5073750;28;20637;-72
2024/04/08 02:32:46;;;;;;;3.87;2.33;;;13.30;99.90;;;;;;5074415;28;20196;-72
2024/04/08 02:35:12;;;;;;;3.83;2.70;;;13.30;99.90;;;;;;5074356;28;20155;-71
2024/04/08 02:37:37;;;;;;;3.33;2.30;;;13.30;99.90;;;;;;5074328;28;20204;-71
2024/04/08 02:40:04;;;;;;;4.40;2.47;;;13.40;99.90;;;;;;5073951;28;20222;-72
2024/04/08 02:42:31;;;;;;;4.90;2.97;;;13.40;99.90;;;;;;5056241;28;20261;-71
2024/04/08 02:44:56;;;;;;;3.30;2.60;;;13.40;99.90;;;;;;5073891;28;20462;-71
2024/04/08 02:47:22;;;;;;;8.50;3.17;;;13.40;99.90;;;;;;5074127;28;20393;-71
2024/04/08 02:49:48;;;;;;;4.43;2.13;;;13.50;99.90;;;;;;5073664;28;20335;-72
2024/04/08 02:52:14;;;;;;;3.33;2.77;;;13.40;99.90;;;;;;5074060;28;20162;-71
2024/04/08 02:54:39;;;;;;;4.30;2.73;;;13.40;99.90;;;;;;5056102;28;20419;-71
2024/04/08 02:57:05;;;;;;;3.43;2.80;;;13.40;99.90;;;;;;5073992;28;20198;-73
2024/04/08 02:59:31;;;;;;;8.00;3.70;;;13.40;99.90;;;;;;5073599;28;20265;-72
2024/04/08 03:01:56;;;;;;;3.80;2.70;;;13.30;99.90;;;;;;5073879;28;20497;-71
2024/04/08 03:04:22;;;;;;;4.77;2.53;;;13.30;99.90;;;;;;5073734;28;20166;-71
2024/04/08 03:06:47;;;;;;;4.73;2.80;;;13.30;99.90;;;;;;5074218;28;20171;-72
2024/04/08 03:09:13;;;;;;;3.03;2.67;;;13.20;99.90;;;;;;5073397;28;20244;-71
2024/04/08 03:11:38;;;;;;;3.43;2.77;;;13.20;99.90;;;;;;5073692;28;20259;-72
2024/04/08 03:14:05;;;;;;;3.37;2.50;;;13.20;99.90;;;;;;5073711;28;20173;-71
2024/04/08 03:16:30;;;;;;;3.43;3.13;;;13.10;99.90;;;;;;5073187;28;20169;-72
2024/04/08 03:18:56;;;;;;;4.10;2.50;;;13.10;99.90;;;;;;5073175;28;20939;-71
2024/04/08 03:21:21;;;;;;;6.40;3.43;;;13.10;99.90;;;;;;5073554;28;20213;-71
2024/04/08 03:23:47;;;;;;;6.07;3.57;;;13.10;99.90;;;;;;5073438;28;20177;-71
2024/04/08 03:26:14;;;;;;;3.77;2.77;;;13.00;99.90;;;;;;5073371;28;20210;-71
2024/04/08 03:28:39;;;;;;;2.87;2.67;;;13.00;99.90;;;;;;5068102;28;20232;-71
2024/04/08 03:31:06;;;;;;;3.60;2.87;;;13.00;99.90;;;;;;5058163;28;20472;-71
2024/04/08 03:33:33;;;;;;;4.20;3.43;;;13.00;99.90;;;;;;5073279;28;20569;-72
2024/04/08 03:35:58;;;;;;;5.07;3.63;;;13.00;99.90;;;;;;5055392;28;20419;-72
2024/04/08 03:38:24;;;;;;;5.03;3.33;;;13.00;99.90;;;;;;5072980;28;20488;-71
2024/04/08 03:41:00;;;;;;;5.47;4.00;;;13.10;99.90;;;;;;5072924;28;20193;-71
2024/04/08 03:43:29;;;;;;;8.90;3.70;;;13.10;99.90;;;;;;5072834;28;20257;-71
2024/04/08 03:45:55;;;;;;;4.53;3.30;;;13.10;99.90;;;;;;5073228;28;20546;-71
2024/04/08 03:48:21;;;;;;;6.50;4.40;;;13.10;99.90;;;;;;5072616;28;20499;-72
2024/04/08 03:50:46;;;;;;;3.73;3.33;;;13.20;99.90;;;;;;5072592;28;20193;-72
2024/04/08 03:53:12;;;;;;;5.10;3.40;;;13.30;99.90;;;;;;5072691;28;20628;-71
2024/04/08 03:55:38;;;;;;;5.13;4.23;;;13.30;99.90;;;;;;5072675;28;20194;-71
2024/04/08 03:58:04;;;;;;;4.00;3.60;;;13.30;99.90;;;;;;5072822;28;20459;-71
2024/04/08 04:00:29;;;;;;;4.50;3.40;;;13.40;99.90;;;;;;5054338;28;20225;-71
2024/04/08 04:02:55;;;;;;;5.83;3.33;;;13.40;99.90;;;;;;5072752;28;20412;-71
2024/04/08 04:05:21;;;;;;;5.10;3.00;;;13.40;99.90;;;;;;5072565;28;20167;-72
2024/04/08 04:07:47;;;;;;;4.73;4.20;;;13.40;99.90;;;;;;5072323;28;20170;-72
2024/04/08 04:10:12;;;;;;;6.90;4.87;;;13.40;99.90;;;;;;5072010;28;20668;-72
2024/04/08 04:12:38;;;;;;;6.33;4.97;;;13.40;99.90;;;;;;5054598;28;20461;-71
2024/04/08 04:15:05;;;;;;;7.00;5.37;;;13.50;99.90;;;;;;5072405;28;20159;-71
2024/04/08 04:17:31;;;;;;;10.17;5.23;;;13.50;99.90;;;;;;5072165;28;20413;-71
2024/04/08 04:19:57;;;;;;;9.23;5.53;;;13.60;99.90;;;;;;5071880;28;20448;-71
2024/04/08 04:22:22;;;;;;;8.70;6.00;;;13.60;99.90;;;;;;5072239;28;20930;-72
2024/04/08 04:24:48;;;;;;;10.80;5.83;;;13.70;99.90;;;;;;5063872;28;20281;-71
2024/04/08 04:27:13;;;;;;;12.33;7.10;;;13.80;99.90;;;;;;5065059;28;20178;-71
2024/04/08 04:29:39;;;;;;;9.50;6.80;;;13.80;99.90;;;;;;5069182;28;20193;-71
2024/04/08 04:32:05;;;;;;;13.17;6.37;;;13.90;99.90;;;;;;5071973;28;20170;-72
2024/04/08 04:34:30;;;;;;;8.07;4.67;;;13.90;99.90;;;;;;5072118;28;20638;-71
2024/04/08 04:36:56;;;;;;;7.67;4.60;;;14.00;99.90;;;;;;5072120;28;20177;-71
2024/04/08 04:39:22;;;;;;;8.47;5.80;;;14.00;99.90;;;;;;5071667;28;20181;-71
2024/04/08 04:41:50;;;;;;;7.20;4.97;;;14.10;99.90;;;;;;5071954;28;20178;-71
2024/04/08 04:44:17;;;;;;;7.00;5.10;;;14.10;99.90;;;;;;5072010;28;20579;-71
2024/04/08 04:46:42;;;;;;;12.93;7.33;;;14.10;99.90;;;;;;5072024;28;20487;-71
2024/04/08 04:49:08;;;;;;;7.00;5.60;;;14.00;99.90;;;;;;5072137;28;20894;-72
2024/04/08 04:51:33;;;;;;;9.63;5.10;;;14.00;99.90;;;;;;5071944;28;20278;-72
2024/04/08 04:53:59;;;;;;;11.13;5.60;;;14.10;99.90;;;;;;5071859;28;20261;-72
2024/04/08 04:56:24;;;;;;;6.07;4.70;;;14.00;99.90;;;;;;5071905;28;20236;-72
2024/04/08 04:58:50;;;;;;;7.57;4.70;;;14.00;99.90;;;;;;5071785;28;20177;-72
2024/04/08 05:01:15;;;;;;;4.73;3.87;;;13.90;99.90;;;;;;5071491;28;20292;-72
2024/04/08 05:03:41;;;;;;;11.10;5.70;;;13.90;99.90;;;;;;5071650;28;20180;-72
2024/04/08 05:06:06;;;;;;;8.37;5.70;;;13.80;99.90;;;;;;5071609;28;20480;-72
2024/04/08 05:08:32;;;;;;;6.33;4.70;;;13.80;99.90;;;;;;5071584;28;20166;-71
2024/04/08 05:10:58;;;;;;;10.93;5.37;;;13.70;99.90;;;;;;5071600;28;20217;-72
2024/04/08 05:13:23;;;;;;;10.80;6.70;;;13.70;99.90;;;;;;5071606;28;20228;-72
2024/04/08 05:16:00;;;;;;;6.53;4.20;;;13.60;99.90;;;;;;5071756;28;20253;-72
2024/04/08 05:18:26;;;;;;;6.40;4.80;;;13.70;99.90;;;;;;5071457;28;20223;-72
2024/04/08 05:20:52;;;;;;;5.00;4.50;;;13.60;99.90;;;;;;5071600;28;20424;-72
2024/04/08 05:23:20;;;;;;;6.17;4.97;;;13.70;99.90;;;;;;5071510;28;20397;-72
2024/04/08 05:25:46;;;;;;;5.70;5.10;;;13.70;99.90;;;;;;5071613;28;20435;-72
2024/04/08 05:28:12;;;;;;;8.60;6.13;;;13.70;99.90;;;;;;5063454;28;20439;-72
2024/04/08 05:30:40;;;;;;;7.33;5.10;;;13.70;99.90;;;;;;5070850;28;20460;-72
2024/04/08 05:33:05;;;;;;;7.43;5.50;;;13.80;99.90;;;;;;5063206;28;20178;-72
2024/04/08 05:35:31;;;;;;;8.70;4.87;;;13.80;99.90;;;;;;5071104;28;20771;-72
2024/04/08 05:37:56;;;;;;;6.70;4.30;;;14.00;99.90;;;;;;5071144;28;20635;-73
2024/04/08 05:40:22;;;;;;;5.87;4.73;;;14.10;99.90;;;;;;5051139;28;20209;-72
2024/04/08 05:42:47;;;;;;;9.77;5.97;;;14.30;99.90;;;;;;5075180;28;20207;-72
2024/04/08 05:45:14;;;;;;;6.13;4.07;;;14.60;99.90;;;;;;5075026;28;20680;-72
2024/04/08 05:47:39;;;;;;;9.00;6.37;;;14.90;99.90;;;;;;5075306;28;20166;-72
2024/04/08 05:50:05;;;;;;;7.80;5.97;;;15.20;99.90;;;;;;5056728;28;20481;-72
2024/04/08 05:52:33;;;;;;;6.63;5.73;;;15.50;99.90;;;;;;5075172;28;20178;-72
2024/04/08 05:54:58;;;;;;;7.70;4.53;;;15.80;99.90;;;;;;5075156;28;20178;-73
2024/04/08 05:57:25;;;;;;;5.97;4.00;;;16.10;99.90;;;;;;5057227;28;20491;-72
2024/04/08 05:59:50;;;;;;;6.53;3.77;;;16.40;99.90;;;;;;5056808;28;20213;-72
2024/04/08 06:02:16;;;;;;;6.03;4.37;;;16.70;99.90;;;;;;5075334;28;20416;-72
2024/04/08 06:04:41;;;;;;;4.90;4.20;;;17.20;99.90;;;;;;5074956;28;20458;-72
2024/04/08 06:07:10;;;;;;;9.47;4.03;;;17.70;99.90;;;;;;5057008;28;20174;-72
2024/04/08 06:09:35;;;;;;;4.17;3.67;;;18.30;99.90;;;;;;5054936;28;20255;-72
2024/04/08 06:12:01;;;;;;;4.33;3.80;;;18.80;99.90;;;;;;5072392;28;20799;-72
2024/04/08 06:14:27;;;;;;;6.03;4.93;;;19.20;99.90;;;;;;5074673;28;20178;-72
2024/04/08 06:16:52;;;;;;;5.63;3.60;;;19.60;99.90;;;;;;5074636;28;20408;-72
2024/04/08 06:19:18;;;;;;;3.23;2.57;;;20.20;99.90;;;;;;5074265;28;20243;-72
2024/04/08 06:21:44;;;;;;;5.97;3.90;;;20.70;99.90;;;;;;5074771;28;20172;-72
2024/04/08 06:24:10;;;;;;;8.97;4.10;;;21.40;99.90;;;;;;5056778;28;20408;-73
2024/04/08 06:26:35;;;;;;;5.37;4.37;;;22.10;99.90;;;;;;5074379;28;20622;-73
2024/04/08 06:29:02;;;;;;;4.20;3.80;;;22.70;99.90;;;;;;5061347;28;20179;-73
2024/04/08 06:31:28;;;;;;;3.73;3.00;;;23.30;99.90;;;;;;5074232;28;20202;-73
2024/04/08 06:33:53;;;;;;;3.90;3.40;;;23.80;99.90;;;;;;5074422;28;20841;-72
2024/04/08 06:36:22;;;;;;;5.33;4.03;;;24.50;99.90;;;;;;5074356;28;20444;-73
2024/04/08 06:38:47;;;;;;;3.33;2.83;;;25.10;99.90;;;;;;5074137;28;20167;-73
2024/04/08 06:41:15;;;;;;;4.13;3.27;;;25.60;99.90;;;;;;5058822;28;20802;-73
2024/04/08 06:43:41;;;;;;;3.67;3.10;;;26.00;99.90;;;;;;5073846;28;20173;-72
2024/04/08 06:46:08;;;;;;;4.10;2.73;;;26.50;99.90;;;;;;5074220;28;20473;-72
2024/04/08 06:48:33;;;;;;;5.70;4.00;;;27.10;99.10;;;;;;5073841;28;20408;-73
2024/04/08 06:50:59;;;;;;;7.27;3.30;;;27.30;84.10;;;;;;5073785;28;20464;-72
2024/04/08 06:53:24;;;;;;;5.23;3.30;;;27.50;79.00;;;;;;5073399;28;20174;-72
2024/04/08 06:55:50;;;;;;;3.67;3.37;;;27.70;76.00;;;;;;5074086;28;20660;-73
2024/04/08 06:58:19;;;;;;;4.43;3.70;;;28.00;72.20;;;;;;5073938;28;20212;-73
2024/04/08 07:00:46;;;;;;;4.67;3.60;;;27.20;65.80;;;;;;5074041;28;20244;-72
2024/04/08 07:03:11;;;;;;;3.37;2.97;;;27.50;67.00;;;;;;5073942;28;20408;-73
2024/04/08 07:05:37;;;;;;;5.70;3.43;;;27.70;68.20;;;;;;5074033;28;20458;-73
2024/04/08 07:08:03;;;;;;;3.90;3.47;;;27.80;68.60;;;;;;5073861;28;20219;-73
2024/04/08 07:10:28;;;;;;;5.10;3.37;;;27.60;64.80;;;;;;5051526;28;20202;-72
2024/04/08 07:12:54;;;;;;;6.53;3.87;;;27.90;64.90;;;;;;5073557;28;20621;-73
2024/04/08 07:15:20;;;;;;;4.90;3.83;;;28.00;61.40;;;;;;5073396;28;20170;-73
2024/04/08 07:17:46;;;;;;;4.70;4.20;;;27.60;61.60;;;;;;5073688;28;20174;-70
2024/04/08 07:20:12;;;;;;;5.73;4.00;;;27.00;62.20;;;;;;5073259;28;20595;-71
2024/04/08 07:22:38;;;;;;;6.73;4.23;;;27.10;63.90;;;;;;5073376;28;20208;-70
2024/04/08 07:25:04;;;;;;;6.40;4.00;;;27.20;61.70;;;;;;5073601;28;20408;-72
2024/04/08 07:27:30;;;;;;;4.17;3.47;;;27.50;61.90;;;;;;5069348;28;20171;-73
2024/04/08 07:29:55;;;;;;;5.60;3.80;;;27.90;59.10;;;;;;5065245;28;20448;-73
2024/04/08 07:32:22;;;;;;;3.83;3.50;;;28.50;57.20;;;;;;5070126;28;20280;-72
2024/04/08 07:34:47;;;;;;;3.93;3.53;;;28.50;55.20;;;;;;5073193;28;20173;-72
2024/04/08 07:37:13;;;;;;;8.67;4.73;;;28.10;55.30;;;;;;5073193;28;20760;-73
2024/04/08 07:39:39;;;;;;;4.07;3.57;;;27.80;56.00;;;;;;5072774;28;20198;-73
2024/04/08 07:42:05;;;;;;;3.60;3.30;;;27.30;56.70;;;;;;5073193;28;20685;-73
2024/04/08 07:44:30;;;;;;;4.93;3.70;;;26.70;57.40;;;;;;5073028;28;20656;-72
2024/04/08 07:46:56;;;;;;;4.00;3.70;;;26.50;58.20;;;;;;5073002;28;20664;-73
2024/04/08 07:49:22;;;;;;;4.97;3.53;;;26.50;59.40;;;;;;5050676;28;20218;-73
2024/04/08 07:51:48;;;;;;;4.17;3.77;;;26.40;60.00;;;;;;5055951;28;20677;-72
2024/04/08 07:54:14;;;;;;;4.00;3.70;;;25.90;59.60;;;;;;5073117;28;20433;-72
2024/04/08 07:56:40;;;;;;;4.40;4.00;;;26.10;63.40;;;;;;5072478;28;20413;-71
2024/04/08 07:59:06;;;;;;;4.70;4.30;;;26.50;62.90;;;;;;5072275;28;20408;-72
2024/04/08 08:01:31;;;;;;;4.87;4.03;;;26.30;63.00;;;;;;5072331;28;20182;-72
2024/04/08 08:03:57;;;;;;;8.63;6.27;;;26.50;63.70;;;;;;5072825;28;20492;-72
2024/04/08 08:06:23;;;;;;;10.00;7.17;;;26.30;62.90;;;;;;5072659;28;20244;-72
2024/04/08 08:08:48;;;;;;;6.40;5.20;;;26.00;64.80;;;;;;5072434;28;20660;-72
2024/04/08 08:11:14;;;;;;;9.13;5.10;;;26.00;65.60;;;;;;5072457;28;20233;-72
2024/04/08 08:13:40;;;;;;;9.53;6.37;;;26.50;66.30;;;;;;5072524;28;20653;-72
2024/04/08 08:16:06;;;;;;;9.53;5.57;;;26.70;63.20;;;;;;5072440;28;20559;-72
2024/04/08 08:18:34;;;;;;;9.40;6.23;;;26.60;64.10;;;;;;5072098;28;20474;-73
2024/04/08 08:21:01;;;;;;;5.20;4.50;;;26.60;62.90;;;;;;5072409;28;20182;-72
2024/04/08 08:23:27;;;;;;;7.73;6.67;;;26.80;63.80;;;;;;5054407;28;20436;-72
2024/04/08 08:25:53;;;;;;;7.70;4.00;;;27.50;64.40;;;;;;5072443;28;20448;-72
2024/04/08 08:28:20;;;;;;;6.00;5.07;;;28.60;62.40;;;;;;5064750;28;20174;-73
2024/04/08 08:30:46;;;;;;;10.10;5.20;;;29.90;56.70;;;;;;5071782;28;20244;-72
2024/04/08 08:33:12;;;;;;;7.53;3.90;;;30.80;53.70;;;;;;5072350;28;20935;-70
2024/04/08 08:35:38;;;;;;;7.90;6.53;;;31.30;51.90;;;;;;5072147;28;20404;-70
2024/04/08 08:38:03;;;;;;;5.07;4.57;;;31.30;48.90;;;;;;5072272;28;20678;-70
2024/04/08 08:40:32;;;;;;;5.23;4.73;;;31.30;49.50;;;;;;5071795;28;20186;-70
2024/04/08 08:42:57;;;;;;;5.40;4.90;;;32.40;48.30;;;;;;5053905;28;20177;-70
2024/04/08 08:45:24;;;;;;;6.60;5.57;;;33.30;45.30;;;;;;5071952;28;20409;-70
2024/04/08 08:47:49;;;;;;;8.40;6.90;;;33.50;43.40;;;;;;5071834;28;20231;-70
2024/04/08 08:50:15;;;;;;;6.30;5.03;;;33.00;42.70;;;;;;5069722;28;20467;-70
2024/04/08 08:52:41;;;;;;;8.87;5.67;;;33.20;42.60;;;;;;5065437;28;20582;-70
2024/04/08 08:55:06;;;;;;;5.73;5.10;;;33.50;42.60;;;;;;5069508;28;20171;-71
2024/04/08 08:57:33;;;;;;;6.50;5.03;;;34.20;41.90;;;;;;5053347;28;20167;-71
2024/04/08 09:00:05;;;;;;;5.10;4.70;;;35.00;40.60;;;;;;5071123;28;20193;-70
2024/04/08 09:02:32;;;;;;;6.03;5.47;;;34.90;39.20;;;;;;5071682;28;20419;-71
2024/04/08 09:04:58;;;;;;;7.70;4.40;;;33.90;39.70;;;;;;5071765;28;20417;-71
2024/04/08 09:07:23;;;;;;;3.00;2.70;;;34.50;40.30;;;;;;5071736;28;20416;-71
2024/04/08 09:09:53;;;;;;;4.87;4.40;;;35.50;39.60;;;;;;5071377;28;20687;-71
2024/04/08 09:12:20;;;;;;;8.80;4.87;;;36.10;37.70;;;;;;5071616;28;20158;-71
2024/04/08 09:14:53;;;;;;;4.70;4.03;;;36.20;37.50;;;;;;5073476;28;20420;-71
2024/04/08 09:17:19;;;;;;;6.07;3.70;;;36.70;38.00;;;;;;5078694;28;20917;-71
2024/04/08 09:19:45;;;;;;;4.70;4.00;;;36.80;35.80;;;;;;5077991;28;20455;-71
2024/04/08 09:22:11;;;;;;;5.03;4.63;;;36.70;36.20;;;;;;5077115;28;20269;-71
2024/04/08 09:24:37;;;;;;;3.70;3.00;;;37.70;36.30;;;;;;5077170;28;20188;-71
2024/04/08 09:27:03;;;;;;;4.53;4.00;;;39.00;35.10;;;;;;5075992;28;20404;-71
2024/04/08 09:29:29;;;;;;;4.57;3.80;;;40.10;33.30;;;;;;5076999;28;20208;-71
2024/04/08 09:31:55;;;;;;;5.17;2.93;;;39.80;31.20;;;;;;5078063;28;20205;-71
2024/04/08 09:34:20;;;;;;;8.63;5.17;;;39.90;31.60;;;;;;5078262;28;20166;-71
2024/04/08 09:36:47;;;;;;;9.07;6.47;;;38.90;30.40;;;;;;5078033;28;20487;-71
2024/04/08 09:39:13;;;;;;;6.60;5.20;;;38.00;31.60;;;;;;5077709;28;20236;-71
2024/04/08 09:41:39;;;;;;;8.10;5.70;;;37.80;31.50;;;;;;5078132;28;20436;-70
2024/04/08 09:44:12;;;;;;;5.10;4.10;;;37.30;32.20;;;;;;5078095;28;20647;-70
2024/04/08 09:46:41;;;;;;;4.83;4.17;;;37.40;34.10;;;;;;5078094;28;20458;-71
2024/04/08 09:49:10;;;;;;;8.67;5.37;;;37.50;33.30;;;;;;5067325;28;20420;-72
2024/04/08 09:51:42;;;;;;;4.77;4.30;;;37.00;32.40;;;;;;5043027;28;20461;-71
2024/04/08 09:54:11;;;;;;;6.23;4.90;;;37.60;33.20;;;;;;5053671;28;20417;-71
2024/04/08 09:56:39;;;;;;;5.33;4.93;;;38.30;32.60;;;;;;5046616;28;20443;-71
2024/04/08 09:59:13;;;;;;;4.10;3.57;;;38.70;32.00;;;;;;5055373;28;20881;-71
2024/04/08 10:01:39;;;;;;;9.13;3.67;;;39.40;32.00;;;;;;5055531;28;20863;-71
2024/04/08 10:05:18;;;;;;;6.00;4.13;;;39.10;31.30;;;;;;5455563;25;21098;-72
2024/04/08 10:07:45;;;;;;;5.70;4.83;;;40.00;31.80;;;;;;5453567;26;20609;-72
2024/04/08 10:10:12;;;;;;;6.80;4.00;;;40.20;30.20;;;;;;5464849;26;20253;-72
2024/04/08 10:12:41;;;;;;;5.03;3.50;;;40.50;30.10;;;;;;5433617;26;20796;-72
2024/04/08 10:15:15;;;;;;;4.33;3.90;;;40.70;30.00;;;;;;5463527;26;20461;-72
2024/04/08 10:17:41;;;;;;;4.90;4.40;;;40.80;29.70;;;;;;5428407;26;20968;-72
2024/04/08 10:20:10;;;;;;;6.40;5.80;;;40.90;29.70;;;;;;5433130;26;20457;-72
2024/04/08 10:22:38;;;;;;;3.83;3.43;;;40.50;28.90;;;;;;5447739;26;20441;-72
2024/04/08 10:25:03;;;;;;;5.63;5.13;;;40.40;29.60;;;;;;5433573;26;20551;-72
2024/04/08 10:27:30;;;;;;;6.00;4.90;;;39.80;29.10;;;;;;5428534;26;20466;-72
2024/04/08 10:29:56;;;;;;;6.70;4.07;;;39.50;29.00;;;;;;5425160;26;20636;-72
2024/04/08 10:32:22;;;;;;;6.47;3.90;;;39.30;29.70;;;;;;5433318;26;20450;-72
2024/04/08 10:34:47;;;;;;;5.33;4.80;;;39.30;30.20;;;;;;5433491;26;21067;-72
2024/04/08 10:37:13;;;;;;;8.20;4.20;;;39.70;29.60;;;;;;5433418;26;20270;-72
2024/04/08 10:39:39;;;;;;;4.40;3.87;;;39.50;29.70;;;;;;5426602;26;20232;-72
2024/04/08 10:42:15;;;;;;;5.10;4.30;;;39.00;29.80;;;;;;5432924;26;20220;-71
2024/04/08 10:44:41;;;;;;;6.27;5.27;;;38.60;30.20;;;;;;5448478;26;20788;-71
2024/04/08 10:47:07;;;;;;;4.80;4.33;;;37.60;31.60;;;;;;5469702;26;20503;-71
2024/04/08 10:49:36;;;;;;;6.63;6.03;;;37.70;30.50;;;;;;5469494;26;20913;-71
2024/04/08 10:52:02;;;;;;;14.10;12.10;;;37.50;31.50;;;;;;5469738;26;20782;-72
2024/04/08 10:54:28;;;;;;;6.67;4.70;;;38.10;32.60;;;;;;5469342;26;20436;-71
2024/04/08 10:56:54;;;;;;;3.80;3.43;;;37.60;30.80;;;;;;5469493;26;20219;-71
2024/04/08 10:59:20;;;;;;;5.77;3.80;;;37.10;31.90;;;;;;5469116;26;20581;-71
2024/04/08 11:01:45;;;;;;;5.87;4.80;;;36.40;32.20;;;;;;5469411;26;20432;-71
2024/04/08 11:04:12;;;;;;;4.83;4.00;;;35.90;32.90;;;;;;5469416;26;20253;-71
2024/04/08 11:06:38;;;;;;;8.20;5.10;;;35.50;33.60;;;;;;5469374;26;20215;-71
2024/04/08 11:09:05;;;;;;;7.67;4.90;;;35.20;34.20;;;;;;5468503;26;20938;-71
2024/04/08 11:11:31;;;;;;;6.20;3.63;;;34.00;34.60;;;;;;5469274;26;20906;-71
2024/04/08 11:13:57;;;;;;;4.50;3.60;;;33.20;35.70;;;;;;5469363;26;20445;-71
2024/04/08 11:16:22;;;;;;;7.13;5.37;;;32.40;36.80;;;;;;5454934;26;20512;-71
2024/04/08 11:18:49;;;;;;;6.03;4.63;;;31.70;38.70;;;;;;5453307;26;20257;-72
2024/04/08 11:21:15;;;;;;;7.57;5.20;;;31.20;38.70;;;;;;5451833;26;20219;-71
2024/04/08 11:23:41;;;;;;;5.87;3.87;;;30.20;39.90;;;;;;5453236;26;20550;-72
2024/04/08 11:26:08;;;;;;;6.17;5.57;;;29.80;40.90;;;;;;5453772;26;20254;-71
2024/04/08 11:28:36;;;;;;;5.37;4.93;;;29.40;42.10;;;;;;5424865;26;20446;-71
2024/04/08 11:31:03;;;;;;;4.90;4.30;;;29.10;43.50;;;;;;5436988;26;20506;-71
2024/04/08 11:33:29;;;;;;;6.10;5.53;;;29.50;43.80;;;;;;5438579;26;20558;-71
2024/04/08 11:35:55;;;;;;;6.90;5.90;;;30.70;43.20;;;;;;5427131;26;20564;-71
2024/04/08 11:38:21;;;;;;;7.53;4.97;;;32.30;41.20;;;;;;5437953;26;20453;-72
2024/04/08 11:40:47;;;;;;;6.87;4.60;;;34.10;38.80;;;;;;5453195;26;20508;-72
2024/04/08 11:43:13;;;;;;;5.37;4.87;;;36.30;36.70;;;;;;5450518;26;20250;-72
2024/04/08 11:45:39;;;;;;;6.33;4.87;;;37.90;33.40;;;;;;5432547;26;20461;-71
2024/04/08 11:48:05;;;;;;;6.60;5.00;;;38.80;31.50;;;;;;5428995;26;20329;-72
2024/04/08 11:50:30;;;;;;;6.57;4.77;;;39.90;31.20;;;;;;5416552;26;20470;-72
2024/04/08 11:52:56;;;;;;;4.23;3.80;;;41.30;30.30;;;;;;5431897;26;20460;-72
2024/04/08 11:55:21;;;;;;;6.03;5.53;;;42.60;29.30;;;;;;5432021;26;20647;-72
2024/04/08 11:57:47;;;;;;;5.03;4.60;;;43.90;27.30;;;;;;5417224;26;20216;-72
2024/04/08 12:00:18;;;;;;;5.00;3.87;;;43.60;27.00;;;;;;5416909;26;20754;-72
2024/04/08 12:02:43;;;;;;;4.00;3.60;;;43.40;27.00;;;;;;5417276;26;20298;-72
2024/04/08 12:05:09;;;;;;;7.53;5.20;;;44.40;27.30;;;;;;5416796;26;20873;-72
2024/04/08 12:07:34;;;;;;;6.20;4.53;;;43.50;25.60;;;;;;5417107;26;20556;-72
2024/04/08 12:10:00;;;;;;;5.80;4.37;;;42.10;26.60;;;;;;5416798;26;20565;-71
2024/04/08 12:12:25;;;;;;;6.80;4.53;;;39.50;27.50;;;;;;5417010;26;20294;-71
2024/04/08 12:14:51;;;;;;;4.50;3.57;;;37.80;28.90;;;;;;5415224;26;20555;-72
2024/04/08 12:17:17;;;;;;;7.10;4.93;;;36.40;30.00;;;;;;5416853;26;20254;-72
2024/04/08 12:19:43;;;;;;;5.40;3.83;;;34.90;31.40;;;;;;5416459;26;20225;-71
2024/04/08 12:22:08;;;;;;;8.63;3.60;;;33.30;33.60;;;;;;5416756;26;20866;-71
2024/04/08 12:24:34;;;;;;;4.47;4.10;;;32.50;35.20;;;;;;5416756;26;20259;-71
2024/04/08 12:27:00;;;;;;;4.93;4.10;;;32.00;36.80;;;;;;5413489;26;20643;-71
2024/04/08 12:29:25;;;;;;;6.00;4.57;;;31.60;38.00;;;;;;5429461;26;20216;-71
2024/04/08 12:31:51;;;;;;;5.77;3.70;;;31.10;39.00;;;;;;5433161;26;20216;-71
2024/04/08 12:34:16;;;;;;;4.53;3.80;;;30.80;39.60;;;;;;5432978;26;20220;-71
2024/04/08 12:36:42;;;;;;;6.60;5.27;;;30.40;40.30;;;;;;5445422;26;20265;-71
2024/04/08 12:39:07;;;;;;;4.33;3.93;;;30.20;40.50;;;;;;5442801;26;20267;-71
2024/04/08 12:41:33;;;;;;;4.23;3.57;;;30.00;41.00;;;;;;5432381;26;20274;-71